createdAt,value
2023-02-12T00:01:29.333Z,57.08
2023-02-12T00:03:58.060Z,58.58
2023-02-12T00:06:26.509Z,58.45
2023-02-12T00:08:56.250Z,58.42
2023-02-12T00:11:27.363Z,58.60
2023-02-12T00:13:56.367Z,51.15
2023-02-12T00:16:27.735Z,54.08
2023-02-12T00:18:57.685Z,54.33
2023-02-12T00:21:25.811Z,59.00
2023-02-12T00:23:53.872Z,52.95
2023-02-12T00:26:23.120Z,50.55
2023-02-12T00:28:52.863Z,61.72
2023-02-12T00:31:27.231Z,51.38
2023-02-12T00:33:59.473Z,54.03
2023-02-12T00:36:29.447Z,56.22
2023-02-12T00:38:58.074Z,58.75
2023-02-12T00:41:26.464Z,59.33
2023-02-12T00:43:54.453Z,59.75
2023-02-12T00:46:22.472Z,50.10
2023-02-12T00:48:50.813Z,60.28
2023-02-12T00:51:21.572Z,54.88
2023-02-12T00:53:49.531Z,55.97
2023-02-12T00:56:17.613Z,57.78
2023-02-12T00:58:45.558Z,65.22
2023-02-12T01:01:13.615Z,66.97
2023-02-12T01:03:41.703Z,69.60
2023-02-12T01:06:09.611Z,69.32
2023-02-12T01:08:37.469Z,71.70
2023-02-12T01:11:06.258Z,67.80
2023-02-12T01:13:35.825Z,66.22
2023-02-12T01:16:19.176Z,64.90
2023-02-12T01:18:47.712Z,68.30
2023-02-12T01:21:19.400Z,62.25
2023-02-12T01:23:48.679Z,73.35
2023-02-12T01:26:17.926Z,64.93
2023-02-12T01:28:50.765Z,84.40
2023-02-12T01:31:22.349Z,83.95
2023-02-12T01:33:54.286Z,76.93
2023-02-12T01:36:22.508Z,91.18
2023-02-12T01:38:50.981Z,87.65
2023-02-12T01:41:25.494Z,85.03
2023-02-12T01:44:21.191Z,98.28
2023-02-12T01:46:55.637Z,95.05
2023-02-12T01:49:38.550Z,103.93
2023-02-12T01:52:25.183Z,105.57
2023-02-12T01:54:57.310Z,106.30
2023-02-12T01:57:28.876Z,113.70
2023-02-12T02:00:01.004Z,113.03
2023-02-12T02:02:31.823Z,120.13
2023-02-12T02:05:03.111Z,106.30
2023-02-12T02:07:31.745Z,100.05
2023-02-12T02:10:00.339Z,100.68
2023-02-12T02:12:49.729Z,99.22
2023-02-12T02:15:18.288Z,84.63
2023-02-12T02:17:51.730Z,93.25
2023-02-12T02:23:19.428Z,83.93
2023-02-12T02:25:58.236Z,81.28
2023-02-12T02:28:43.298Z,88.28
2023-02-12T02:31:43.889Z,84.72
2023-02-12T02:34:55.646Z,81.70
2023-02-12T02:37:43.853Z,76.10
2023-02-12T02:40:18.395Z,73.72
2023-02-12T02:42:58.804Z,83.55
2023-02-12T02:45:43.814Z,71.30
2023-02-12T02:48:18.945Z,71.38
2023-02-12T02:50:53.331Z,71.30
2023-02-12T02:53:48.722Z,69.30
2023-02-12T02:56:20.377Z,74.10
2023-02-12T02:58:57.100Z,68.28
2023-02-12T03:01:36.286Z,62.83
2023-02-12T03:04:08.029Z,65.00
2023-02-12T03:06:55.233Z,64.10
2023-02-12T03:09:34.976Z,55.90
2023-02-12T03:12:18.674Z,57.58
2023-02-12T03:15:03.192Z,56.00
2023-02-12T03:17:36.231Z,57.80
2023-02-12T03:20:15.999Z,55.88
2023-02-12T03:22:51.630Z,56.70
2023-02-12T03:25:28.793Z,58.47
2023-02-12T03:28:19.577Z,64.63
2023-02-12T03:31:19.514Z,55.47
2023-02-12T03:34:12.148Z,56.63
2023-02-12T03:36:57.389Z,54.65
2023-02-12T03:40:06.099Z,58.78
2023-02-12T03:42:45.939Z,61.65
2023-02-12T03:45:29.686Z,52.33
2023-02-12T03:48:10.360Z,54.50
2023-02-12T03:51:11.210Z,56.95
2023-02-12T03:53:39.250Z,62.00
2023-02-12T03:56:13.348Z,60.90
2023-02-12T03:58:43.338Z,52.47
2023-02-12T04:01:12.771Z,57.13
2023-02-12T04:03:41.966Z,55.45
2023-02-12T04:06:36.470Z,53.22
2023-02-12T04:09:07.702Z,58.35
2023-02-12T04:11:55.214Z,47.67
2023-02-12T04:14:50.432Z,55.67
2023-02-12T04:17:27.149Z,50.63
2023-02-12T04:20:08.961Z,57.03
2023-02-12T04:22:51.855Z,58.95
2023-02-12T04:25:41.361Z,57.13
2023-02-12T04:28:15.326Z,52.10
2023-02-12T04:31:03.488Z,52.22
2023-02-12T04:33:48.835Z,50.30
2023-02-12T04:36:28.833Z,48.78
2023-02-12T04:39:02.467Z,53.80
2023-02-12T04:41:32.034Z,52.85
2023-02-12T04:44:14.368Z,48.65
2023-02-12T04:46:42.369Z,49.58
2023-02-12T04:49:15.509Z,54.00
2023-02-12T04:51:44.289Z,57.15
2023-02-12T04:54:12.789Z,53.45
2023-02-12T04:56:40.868Z,49.40
2023-02-12T04:59:09.537Z,53.50
2023-02-12T05:01:39.290Z,54.72
2023-02-12T05:04:08.380Z,50.15
2023-02-12T05:06:37.761Z,52.10
2023-02-12T05:09:07.152Z,46.17
2023-02-12T05:11:35.164Z,51.33
2023-02-12T05:14:03.193Z,57.65
2023-02-12T05:16:31.094Z,51.38
2023-02-12T05:18:58.899Z,48.50
2023-02-12T05:21:26.820Z,60.30
2023-02-12T05:23:54.817Z,51.95
2023-02-12T05:26:23.033Z,53.67
2023-02-12T05:28:50.900Z,52.92
2023-02-12T05:31:21.656Z,51.20
2023-02-12T05:33:50.409Z,54.38
2023-02-12T05:36:21.214Z,56.70
2023-02-12T05:38:50.141Z,51.60
2023-02-12T05:41:24.188Z,59.03
2023-02-12T05:43:52.176Z,56.30
2023-02-12T05:46:21.974Z,56.55
2023-02-12T05:48:50.426Z,57.20
2023-02-12T05:51:26.960Z,60.47
2023-02-12T05:54:01.371Z,65.32
2023-02-12T05:56:31.701Z,64.38
2023-02-12T05:59:06.641Z,62.88
2023-02-12T06:01:37.700Z,62.75
2023-02-12T06:04:08.396Z,60.67
2023-02-12T06:06:36.800Z,62.65
2023-02-12T06:09:04.623Z,60.15
2023-02-12T06:11:32.408Z,60.80
2023-02-12T06:14:03.901Z,58.17
2023-02-12T06:16:33.337Z,60.20
2023-02-12T06:19:03.682Z,62.70
2023-02-12T06:21:32.425Z,61.80
2023-02-12T06:24:00.661Z,65.38
2023-02-12T06:26:28.799Z,61.53
2023-02-12T06:28:56.986Z,56.53
2023-02-12T06:31:33.879Z,58.13
2023-02-12T06:34:05.185Z,57.55
2023-02-12T06:36:33.841Z,61.08
2023-02-12T06:39:03.152Z,57.17
2023-02-12T06:41:31.099Z,54.80
2023-02-12T06:43:59.072Z,57.33
2023-02-12T06:46:26.996Z,56.78
2023-02-12T06:48:57.051Z,58.55
2023-02-12T06:51:26.384Z,55.38
2023-02-12T06:53:55.728Z,56.92
2023-02-12T06:56:25.105Z,57.55
2023-02-12T06:58:55.985Z,57.00
2023-02-12T07:01:29.624Z,56.53
2023-02-12T07:04:02.599Z,56.22
2023-02-12T07:06:33.929Z,54.95
2023-02-12T07:09:03.406Z,56.85
2023-02-12T07:11:36.161Z,52.97
2023-02-12T07:14:07.168Z,54.63
2023-02-12T07:16:35.123Z,59.15
2023-02-12T07:19:03.155Z,53.50
2023-02-12T07:21:32.297Z,56.28
2023-02-12T07:24:00.425Z,65.32
2023-02-12T07:26:28.283Z,63.15
2023-02-12T07:28:58.788Z,72.38
2023-02-12T07:31:26.834Z,65.50
2023-02-12T07:33:56.870Z,64.72
2023-02-12T07:36:26.889Z,60.63
2023-02-12T07:38:56.134Z,74.53
2023-02-12T07:41:26.726Z,68.88
2023-02-12T07:44:14.229Z,74.43
2023-02-12T07:46:49.347Z,61.83
2023-02-12T07:49:20.676Z,59.60
2023-02-12T07:51:49.994Z,53.90
2023-02-12T07:54:18.461Z,58.85
2023-02-12T07:56:49.044Z,57.22
2023-02-12T07:59:18.919Z,58.22
2023-02-12T08:01:49.359Z,55.63
2023-02-12T08:04:20.634Z,51.05
2023-02-12T08:06:51.527Z,53.15
2023-02-12T08:09:23.323Z,46.65
2023-02-12T08:11:51.792Z,39.38
2023-02-12T08:14:22.373Z,45.50
2023-02-12T08:16:50.933Z,45.17
2023-02-12T08:19:23.936Z,43.78
2023-02-12T08:21:55.511Z,39.78
2023-02-12T08:24:24.697Z,37.63
2023-02-12T08:26:52.926Z,41.63
2023-02-12T08:29:24.339Z,36.47
2023-02-12T08:32:00.556Z,38.75
2023-02-12T08:34:31.844Z,48.53
2023-02-12T08:37:00.509Z,43.47
2023-02-12T08:39:30.236Z,61.92
2023-02-12T08:41:59.650Z,63.85
2023-02-12T08:44:28.353Z,74.97
2023-02-12T08:46:56.222Z,72.18
2023-02-12T08:49:29.229Z,76.90
2023-02-12T08:51:58.449Z,61.15
2023-02-12T08:54:29.269Z,64.93
2023-02-12T08:56:58.881Z,60.08
2023-02-12T08:59:27.352Z,55.50
2023-02-12T09:01:55.726Z,57.75
2023-02-12T09:04:27.252Z,65.95
2023-02-12T09:06:56.229Z,69.60
2023-02-12T09:09:24.372Z,70.35
2023-02-12T09:11:52.224Z,68.30
2023-02-12T09:14:24.652Z,74.82
2023-02-12T09:16:54.381Z,70.00
2023-02-12T09:19:22.519Z,67.50
2023-02-12T09:21:56.114Z,67.38
2023-02-12T09:24:27.885Z,63.58
2023-02-12T09:26:56.552Z,59.15
2023-02-12T09:29:24.742Z,58.42
2023-02-12T09:31:52.861Z,55.38
2023-02-12T09:34:20.920Z,60.67
2023-02-12T09:36:48.789Z,56.30
2023-02-12T09:39:16.655Z,56.45
2023-02-12T09:42:15.580Z,54.72
2023-02-12T09:44:46.411Z,60.38
2023-02-12T09:47:36.490Z,49.40
2023-02-12T09:50:07.731Z,48.88
2023-02-12T09:52:37.586Z,51.92
2023-02-12T09:55:06.093Z,55.42
2023-02-12T09:57:37.166Z,43.90
2023-02-12T10:00:32.134Z,61.95
2023-02-12T10:03:06.005Z,47.83
2023-02-12T10:05:43.254Z,46.55
2023-02-12T10:08:41.921Z,47.00
2023-02-12T10:11:21.840Z,47.53
2023-02-12T10:14:10.566Z,49.28
2023-02-12T10:16:44.399Z,47.83
2023-02-12T10:19:30.875Z,48.40
2023-02-12T10:22:19.758Z,46.05
2023-02-12T10:25:24.792Z,55.75
2023-02-12T10:27:55.816Z,50.10
2023-02-12T10:30:32.697Z,49.08
2023-02-12T10:33:29.778Z,47.92
2023-02-12T10:36:36.523Z,43.95
2023-02-12T10:39:18.342Z,51.20
2023-02-12T10:42:01.120Z,44.25
2023-02-12T10:44:29.094Z,38.30
2023-02-12T10:47:01.498Z,35.78
2023-02-12T10:49:32.781Z,41.85
2023-02-12T10:52:42.184Z,38.20
2023-02-12T10:55:28.820Z,41.72
2023-02-12T10:57:58.177Z,39.80
2023-02-12T11:00:33.834Z,43.58
2023-02-12T11:03:13.742Z,40.42
2023-02-12T11:05:44.191Z,38.38
2023-02-12T11:08:32.754Z,39.97
2023-02-12T11:11:26.972Z,40.45
2023-02-12T11:14:07.278Z,34.80
2023-02-12T11:16:39.940Z,40.22
2023-02-12T11:19:19.079Z,41.28
2023-02-12T11:21:47.659Z,42.22
2023-02-12T11:24:28.464Z,35.67
2023-02-12T11:27:30.185Z,35.28
2023-02-12T11:30:10.557Z,29.73
2023-02-12T11:32:38.722Z,28.38
2023-02-12T11:35:26.000Z,34.80
2023-02-12T11:37:57.795Z,32.70
2023-02-12T11:40:28.766Z,37.03
2023-02-12T11:43:00.868Z,34.42
2023-02-12T11:45:37.469Z,30.60
2023-02-12T11:48:36.100Z,34.88
2023-02-12T11:51:09.230Z,32.85
2023-02-12T11:53:42.501Z,36.30
2023-02-12T11:56:13.521Z,39.15
2023-02-12T11:58:41.569Z,36.60
2023-02-12T12:01:16.562Z,38.22
2023-02-12T12:03:56.165Z,35.42
2023-02-12T12:06:29.971Z,37.28
2023-02-12T12:09:03.250Z,35.95
2023-02-12T12:12:08.577Z,30.95
2023-02-12T12:15:09.533Z,33.53
2023-02-12T12:18:25.370Z,36.65
2023-02-12T12:20:57.177Z,34.17
2023-02-12T12:23:36.000Z,30.53
2023-02-12T12:26:19.152Z,28.98
2023-02-12T12:28:51.041Z,27.85
2023-02-12T12:31:54.204Z,28.73
2023-02-12T12:37:15.647Z,29.70
2023-02-12T12:40:02.152Z,30.63
2023-02-12T12:42:56.233Z,30.33
2023-02-12T12:45:41.353Z,36.22
2023-02-12T12:48:24.017Z,33.55
2023-02-12T12:51:30.100Z,32.35
2023-02-12T12:54:00.702Z,35.33
2023-02-12T12:57:10.211Z,36.55
2023-02-12T12:59:47.962Z,42.33
2023-02-12T13:02:53.634Z,36.85
2023-02-12T13:05:43.822Z,37.05
2023-02-12T13:08:36.253Z,43.28
2023-02-12T13:11:46.033Z,40.80
2023-02-12T13:14:23.703Z,35.45
2023-02-12T13:17:23.805Z,36.13
2023-02-12T13:19:54.539Z,33.22
2023-02-12T13:22:44.726Z,30.13
2023-02-12T13:25:36.846Z,29.95
2023-02-12T13:28:10.588Z,23.57
2023-02-12T13:30:50.709Z,22.23
2023-02-12T13:33:27.904Z,17.88
2023-02-12T13:36:00.865Z,15.07
2023-02-12T13:38:54.866Z,13.30
2023-02-12T13:41:23.275Z,13.45
2023-02-12T13:44:33.019Z,17.50
2023-02-12T13:47:13.655Z,12.50
2023-02-12T13:49:50.178Z,13.57
2023-02-12T13:52:37.666Z,11.50
2023-02-12T13:55:24.460Z,11.10
2023-02-12T13:58:29.984Z,11.95
2023-02-12T14:01:01.149Z,14.02
2023-02-12T14:03:31.681Z,11.77
2023-02-12T14:06:18.222Z,11.65
2023-02-12T14:08:54.807Z,12.90
2023-02-12T14:11:26.289Z,13.68
2023-02-12T14:14:01.670Z,14.47
2023-02-12T14:16:29.473Z,16.38
2023-02-12T14:19:34.791Z,17.08
2023-02-12T14:22:24.093Z,12.45
2023-02-12T14:25:16.387Z,16.70
2023-02-12T14:28:13.177Z,14.20
2023-02-12T14:30:41.355Z,14.02
2023-02-12T14:33:11.212Z,14.02
2023-02-12T14:35:44.206Z,14.20
2023-02-12T14:38:12.027Z,15.13
2023-02-12T14:40:47.454Z,15.82
2023-02-12T14:43:54.411Z,17.30
2023-02-12T14:46:25.546Z,16.33
2023-02-12T14:49:07.664Z,15.88
2023-02-12T14:52:13.497Z,18.00
2023-02-12T14:55:13.779Z,16.10
2023-02-12T14:57:42.548Z,17.05
2023-02-12T15:00:21.771Z,16.98
2023-02-12T15:02:55.595Z,18.42
2023-02-12T15:05:31.151Z,18.92
2023-02-12T15:08:22.079Z,18.15
2023-02-12T15:10:55.589Z,18.98
2023-02-12T15:13:23.541Z,21.40
2023-02-12T15:16:31.945Z,24.05
2023-02-12T15:19:02.518Z,20.67
2023-02-12T15:21:33.022Z,20.85
2023-02-12T15:24:12.840Z,20.27
2023-02-12T15:26:53.140Z,22.55
2023-02-12T15:29:26.060Z,24.00
2023-02-12T15:34:27.845Z,21.45
2023-02-12T15:36:59.102Z,22.67
2023-02-12T15:39:28.359Z,19.02
2023-02-12T15:41:56.302Z,18.30
2023-02-12T15:44:32.827Z,19.98
2023-02-12T15:47:08.360Z,18.85
2023-02-12T15:49:38.779Z,18.08
2023-02-12T15:52:25.234Z,19.00
2023-02-12T15:54:53.368Z,22.45
2023-02-12T15:57:24.419Z,17.10
2023-02-12T15:59:55.505Z,20.02
2023-02-12T16:02:33.362Z,21.25
2023-02-12T16:05:04.940Z,20.00
2023-02-12T16:07:37.373Z,18.75
2023-02-12T16:10:06.682Z,21.33
2023-02-12T16:12:38.016Z,18.60
2023-02-12T16:15:06.510Z,19.17
2023-02-12T16:17:37.254Z,20.05
2023-02-12T16:20:19.891Z,19.85
2023-02-12T16:22:50.633Z,20.35
2023-02-12T16:25:20.594Z,18.38
2023-02-12T16:28:07.399Z,24.55
2023-02-12T16:30:42.877Z,20.70
2023-02-12T16:33:36.942Z,21.83
2023-02-12T16:36:31.946Z,20.50
2023-02-12T16:39:06.247Z,20.15
2023-02-12T16:41:56.787Z,27.10
2023-02-12T16:44:27.362Z,20.65
2023-02-12T16:46:58.890Z,26.25
2023-02-12T16:49:27.571Z,22.58
2023-02-12T16:52:19.579Z,24.48
2023-02-12T16:54:47.530Z,21.08
2023-02-12T16:57:15.462Z,22.17
2023-02-12T16:59:45.413Z,31.40
2023-02-12T17:02:15.771Z,24.02
2023-02-12T17:04:43.825Z,23.17
2023-02-12T17:07:24.786Z,24.58
2023-02-12T17:09:52.702Z,22.50
2023-02-12T17:12:21.035Z,20.55
2023-02-12T17:14:49.281Z,22.13
2023-02-12T17:17:17.566Z,21.85
2023-02-12T17:19:45.566Z,22.58
2023-02-12T17:22:24.755Z,19.83
2023-02-12T17:24:53.467Z,23.27
2023-02-12T17:27:21.581Z,18.02
2023-02-12T17:29:49.570Z,17.90
2023-02-12T17:32:17.509Z,18.77
2023-02-12T17:34:48.814Z,17.50
2023-02-12T17:37:18.437Z,17.23
2023-02-12T17:39:46.479Z,17.52
2023-02-12T17:42:14.475Z,19.45
2023-02-12T17:44:42.510Z,20.98
2023-02-12T17:47:10.578Z,15.68
2023-02-12T17:49:40.140Z,18.25
2023-02-12T17:52:08.329Z,16.33
2023-02-12T17:54:36.517Z,15.27
2023-02-12T17:57:04.556Z,17.27
2023-02-12T17:59:32.473Z,17.90
2023-02-12T18:02:00.707Z,29.80
2023-02-12T18:04:28.843Z,26.27
2023-02-12T18:06:57.799Z,20.52
2023-02-12T18:09:25.799Z,22.45
2023-02-12T18:11:53.846Z,18.50
2023-02-12T18:14:21.843Z,16.70
2023-02-12T18:16:49.863Z,19.23
2023-02-12T18:19:17.984Z,13.85
2023-02-12T18:21:45.905Z,16.33
2023-02-12T18:24:13.966Z,15.88
2023-02-12T18:26:42.040Z,15.13
2023-02-12T18:29:10.282Z,15.48
2023-02-12T18:31:38.349Z,15.32
2023-02-12T18:34:06.814Z,13.60
2023-02-12T18:36:35.133Z,18.30
2023-02-12T18:39:03.083Z,14.52
2023-02-12T18:41:33.003Z,17.52
2023-02-12T18:44:00.904Z,19.55
2023-02-12T18:46:31.932Z,15.80
2023-02-12T18:49:01.156Z,16.58
2023-02-12T18:51:36.825Z,14.18
2023-02-12T18:54:08.048Z,14.07
2023-02-12T18:56:38.307Z,16.15
2023-02-12T18:59:06.285Z,15.35
2023-02-12T19:01:37.627Z,15.77
2023-02-12T19:04:08.139Z,15.02
2023-02-12T19:06:41.520Z,16.23
2023-02-12T19:09:11.228Z,16.83
2023-02-12T19:11:39.140Z,16.08
2023-02-12T19:14:07.140Z,19.10
2023-02-12T19:16:35.247Z,17.67
2023-02-12T19:19:03.225Z,17.58
2023-02-12T19:21:31.328Z,16.00
2023-02-12T19:24:02.261Z,14.93
2023-02-12T19:26:31.307Z,18.10
2023-02-12T19:29:00.125Z,16.30
2023-02-12T19:31:31.943Z,16.33
2023-02-12T19:34:03.627Z,13.63
2023-02-12T19:36:33.646Z,14.75
2023-02-12T19:39:02.694Z,15.88
2023-02-12T19:41:31.299Z,16.20
2023-02-12T19:44:01.392Z,13.90
2023-02-12T19:46:31.423Z,13.65
2023-02-12T19:49:02.274Z,14.57
2023-02-12T19:51:31.173Z,14.05
2023-02-12T19:54:04.877Z,14.43
2023-02-12T19:56:35.526Z,13.73
2023-02-12T19:59:05.482Z,15.77
2023-02-12T20:01:34.213Z,12.48
2023-02-12T20:04:04.122Z,13.25
2023-02-12T20:06:37.346Z,12.82
2023-02-12T20:11:39.840Z,11.80
2023-02-12T20:14:10.572Z,12.15
2023-02-12T20:16:41.750Z,12.65
2023-02-12T20:19:12.895Z,16.10
2023-02-12T20:21:43.094Z,12.85
2023-02-12T20:24:11.153Z,16.20
2023-02-12T20:26:39.672Z,12.00
2023-02-12T20:29:07.708Z,15.90
2023-02-12T20:31:37.376Z,16.95
2023-02-12T20:34:09.000Z,13.68
2023-02-12T20:36:39.528Z,15.40
2023-02-12T20:39:10.199Z,16.10
2023-02-12T20:41:38.271Z,17.38
2023-02-12T20:44:09.062Z,18.90
2023-02-12T20:46:39.932Z,19.67
2023-02-12T20:49:08.108Z,19.50
2023-02-12T20:51:35.983Z,16.55
2023-02-12T20:54:04.146Z,16.83
2023-02-12T20:56:36.112Z,16.35
2023-02-12T20:59:05.520Z,17.45
2023-02-12T21:01:39.698Z,17.42
2023-02-12T21:04:11.399Z,15.23
2023-02-12T21:06:40.784Z,16.17
2023-02-12T21:09:10.538Z,14.13
2023-02-12T21:11:40.143Z,15.80
2023-02-12T21:14:21.760Z,13.27
2023-02-12T21:16:51.996Z,13.97
2023-02-12T21:19:19.730Z,15.70
2023-02-12T21:21:48.014Z,14.18
2023-02-12T21:24:21.858Z,18.23
2023-02-12T21:26:51.319Z,15.63
2023-02-12T21:29:20.163Z,20.27
2023-02-12T21:31:50.506Z,14.00
2023-02-12T21:34:21.734Z,13.20
2023-02-12T21:36:51.223Z,17.20
2023-02-12T21:39:26.412Z,18.30
2023-02-12T21:41:57.416Z,12.35
2023-02-12T21:44:26.231Z,13.90
2023-02-12T21:46:54.865Z,12.90
2023-02-12T21:49:26.660Z,13.93
2023-02-12T21:52:02.352Z,15.27
2023-02-12T21:54:30.954Z,18.50
2023-02-12T21:56:59.429Z,13.48
2023-02-12T21:59:30.714Z,14.95
2023-02-12T22:02:00.837Z,14.15
2023-02-12T22:04:29.456Z,14.70
2023-02-12T22:06:58.275Z,15.27
2023-02-12T22:09:26.269Z,16.98
2023-02-12T22:11:54.279Z,12.32
2023-02-12T22:14:22.741Z,16.38
2023-02-12T22:16:50.947Z,15.55
2023-02-12T22:19:19.214Z,16.77
2023-02-12T22:21:51.642Z,14.23
2023-02-12T22:24:20.716Z,16.15
2023-02-12T22:26:48.520Z,14.88
2023-02-12T22:29:16.740Z,17.50
2023-02-12T22:31:46.879Z,13.65
2023-02-12T22:34:17.162Z,15.57
2023-02-12T22:36:45.458Z,14.77
2023-02-12T22:39:14.402Z,18.55
2023-02-12T22:41:42.682Z,16.58
2023-02-12T22:44:12.398Z,13.60
2023-02-12T22:46:41.766Z,14.23
2023-02-12T22:49:10.311Z,14.55
2023-02-12T22:51:39.868Z,14.20
2023-02-12T22:54:12.571Z,17.55
2023-02-12T22:56:41.090Z,15.25
2023-02-12T22:59:11.344Z,16.00
2023-02-12T23:01:40.046Z,13.30
2023-02-12T23:04:08.327Z,13.48
2023-02-12T23:06:36.293Z,13.48
2023-02-12T23:09:04.920Z,13.85
2023-02-12T23:11:34.013Z,18.48
2023-02-12T23:14:02.012Z,15.52
2023-02-12T23:16:29.972Z,17.20
2023-02-12T23:19:00.207Z,20.58
2023-02-12T23:21:30.428Z,20.90
2023-02-12T23:24:02.165Z,14.45
2023-02-12T23:26:30.570Z,12.32
2023-02-12T23:28:58.857Z,14.25
2023-02-12T23:31:26.893Z,15.93
2023-02-12T23:33:54.982Z,13.18
2023-02-12T23:36:22.829Z,13.82
2023-02-12T23:38:50.803Z,15.07
2023-02-12T23:41:18.737Z,14.50
2023-02-12T23:43:46.632Z,13.10
2023-02-12T23:46:14.628Z,13.20
2023-02-12T23:48:42.571Z,14.48
2023-02-12T23:51:10.699Z,12.98
2023-02-12T23:53:38.651Z,13.90
2023-02-12T23:56:07.155Z,15.00
2023-02-12T23:58:35.025Z,14.13
